sensor_id;sensor_type;location;lat;lon;timestamp;P1;durP1;ratioP1;P2;durP2;ratioP2
24650;SDS011;12783;48.824;8.662;2022-08-01T00:00:02;4.53;;;2.00;;
24650;SDS011;12783;48.824;8.662;2022-08-01T00:02:30;4.32;;;1.88;;
24650;SDS011;12783;48.824;8.662;2022-08-01T00:04:58;4.63;;;2.15;;
24650;SDS011;12783;48.824;8.662;2022-08-01T00:07:26;2.75;;;2.05;;
24650;SDS011;12783;48.824;8.662;2022-08-01T00:09:53;1.77;;;1.60;;
24650;SDS011;12783;48.824;8.662;2022-08-01T00:12:19;2.92;;;1.95;;
24650;SDS011;12783;48.824;8.662;2022-08-01T00:14:46;4.45;;;2.03;;
24650;SDS011;12783;48.824;8.662;2022-08-01T00:17:13;7.35;;;2.50;;
24650;SDS011;12783;48.824;8.662;2022-08-01T00:19:40;4.70;;;2.03;;
24650;SDS011;12783;48.824;8.662;2022-08-01T00:22:07;4.90;;;2.10;;
24650;SDS011;12783;48.824;8.662;2022-08-01T00:24:34;4.10;;;2.35;;
24650;SDS011;12783;48.824;8.662;2022-08-01T00:27:01;2.95;;;2.15;;
24650;SDS011;12783;48.824;8.662;2022-08-01T00:29:28;2.42;;;2.13;;
24650;SDS011;12783;48.824;8.662;2022-08-01T00:32:15;2.60;;;2.22;;
24650;SDS011;12783;48.824;8.662;2022-08-01T00:34:42;3.63;;;2.20;;
24650;SDS011;12783;48.824;8.662;2022-08-01T00:37:08;2.20;;;2.00;;
24650;SDS011;12783;48.824;8.662;2022-08-01T00:39:41;2.70;;;1.90;;
24650;SDS011;12783;48.824;8.662;2022-08-01T00:42:09;3.53;;;2.00;;
24650;SDS011;12783;48.824;8.662;2022-08-01T00:44:37;2.40;;;2.10;;
24650;SDS011;12783;48.824;8.662;2022-08-01T00:47:04;2.33;;;2.00;;
24650;SDS011;12783;48.824;8.662;2022-08-01T00:49:31;4.85;;;2.20;;
24650;SDS011;12783;48.824;8.662;2022-08-01T00:51:58;2.20;;;2.00;;
24650;SDS011;12783;48.824;8.662;2022-08-01T00:54:26;5.07;;;2.10;;
24650;SDS011;12783;48.824;8.662;2022-08-01T00:56:53;4.32;;;1.98;;
24650;SDS011;12783;48.824;8.662;2022-08-01T00:59:21;3.90;;;2.17;;
24650;SDS011;12783;48.824;8.662;2022-08-01T01:01:51;3.10;;;2.25;;
24650;SDS011;12783;48.824;8.662;2022-08-01T01:04:19;4.20;;;1.80;;
24650;SDS011;12783;48.824;8.662;2022-08-01T01:09:50;3.67;;;2.13;;
24650;SDS011;12783;48.824;8.662;2022-08-01T01:15:07;2.55;;;1.92;;
24650;SDS011;12783;48.824;8.662;2022-08-01T01:17:51;2.20;;;2.00;;
24650;SDS011;12783;48.824;8.662;2022-08-01T01:20:23;2.85;;;2.10;;
24650;SDS011;12783;48.824;8.662;2022-08-01T01:30:49;2.10;;;1.92;;
24650;SDS011;12783;48.824;8.662;2022-08-01T01:33:17;2.85;;;2.38;;
24650;SDS011;12783;48.824;8.662;2022-08-01T01:35:47;2.63;;;2.00;;
24650;SDS011;12783;48.824;8.662;2022-08-01T01:38:26;2.55;;;1.88;;
24650;SDS011;12783;48.824;8.662;2022-08-01T01:40:56;3.03;;;2.00;;
24650;SDS011;12783;48.824;8.662;2022-08-01T01:43:23;5.65;;;2.10;;
24650;SDS011;12783;48.824;8.662;2022-08-01T01:45:58;5.38;;;1.90;;
24650;SDS011;12783;48.824;8.662;2022-08-01T01:48:26;6.55;;;2.05;;
24650;SDS011;12783;48.824;8.662;2022-08-01T01:50:54;3.75;;;2.10;;
24650;SDS011;12783;48.824;8.662;2022-08-01T01:53:22;4.70;;;2.08;;
24650;SDS011;12783;48.824;8.662;2022-08-01T01:55:51;2.17;;;1.98;;
24650;SDS011;12783;48.824;8.662;2022-08-01T01:58:19;2.03;;;1.83;;
24650;SDS011;12783;48.824;8.662;2022-08-01T02:00:47;3.50;;;1.90;;
24650;SDS011;12783;48.824;8.662;2022-08-01T02:03:16;3.58;;;1.77;;
24650;SDS011;12783;48.824;8.662;2022-08-01T02:05:44;2.03;;;1.83;;
24650;SDS011;12783;48.824;8.662;2022-08-01T02:08:13;5.03;;;2.00;;
24650;SDS011;12783;48.824;8.662;2022-08-01T02:10:41;2.00;;;1.60;;
24650;SDS011;12783;48.824;8.662;2022-08-01T02:13:29;1.92;;;1.73;;
24650;SDS011;12783;48.824;8.662;2022-08-01T02:15:58;2.60;;;1.75;;
24650;SDS011;12783;48.824;8.662;2022-08-01T02:18:26;2.80;;;1.73;;
24650;SDS011;12783;48.824;8.662;2022-08-01T02:20:52;1.98;;;1.77;;
24650;SDS011;12783;48.824;8.662;2022-08-01T02:23:20;2.78;;;1.50;;
24650;SDS011;12783;48.824;8.662;2022-08-01T02:25:50;3.22;;;2.03;;
24650;SDS011;12783;48.824;8.662;2022-08-01T02:28:38;3.15;;;1.80;;
24650;SDS011;12783;48.824;8.662;2022-08-01T02:31:12;2.45;;;1.90;;
24650;SDS011;12783;48.824;8.662;2022-08-01T02:33:43;3.63;;;1.83;;
24650;SDS011;12783;48.824;8.662;2022-08-01T02:36:12;2.58;;;1.90;;
24650;SDS011;12783;48.824;8.662;2022-08-01T02:38:59;4.63;;;1.75;;
24650;SDS011;12783;48.824;8.662;2022-08-01T02:41:28;3.35;;;2.00;;
24650;SDS011;12783;48.824;8.662;2022-08-01T02:43:59;2.53;;;1.48;;
24650;SDS011;12783;48.824;8.662;2022-08-01T02:46:31;1.75;;;1.58;;
24650;SDS011;12783;48.824;8.662;2022-08-01T02:49:02;3.30;;;1.73;;
24650;SDS011;12783;48.824;8.662;2022-08-01T02:51:29;1.60;;;1.42;;
24650;SDS011;12783;48.824;8.662;2022-08-01T02:53:57;2.00;;;1.50;;
24650;SDS011;12783;48.824;8.662;2022-08-01T02:56:25;1.60;;;1.50;;
24650;SDS011;12783;48.824;8.662;2022-08-01T02:59:02;2.00;;;1.48;;
24650;SDS011;12783;48.824;8.662;2022-08-01T03:01:31;2.30;;;1.60;;
24650;SDS011;12783;48.824;8.662;2022-08-01T03:04:02;1.65;;;1.45;;
24650;SDS011;12783;48.824;8.662;2022-08-01T03:06:31;1.60;;;1.50;;
24650;SDS011;12783;48.824;8.662;2022-08-01T03:09:00;1.45;;;1.33;;
24650;SDS011;12783;48.824;8.662;2022-08-01T03:11:29;1.60;;;1.33;;
24650;SDS011;12783;48.824;8.662;2022-08-01T03:13:56;2.13;;;1.52;;
24650;SDS011;12783;48.824;8.662;2022-08-01T03:16:28;1.60;;;1.30;;
24650;SDS011;12783;48.824;8.662;2022-08-01T03:18:57;2.35;;;1.50;;
24650;SDS011;12783;48.824;8.662;2022-08-01T03:21:25;2.05;;;1.40;;
24650;SDS011;12783;48.824;8.662;2022-08-01T03:23:53;1.58;;;1.48;;
24650;SDS011;12783;48.824;8.662;2022-08-01T03:26:27;1.75;;;1.40;;
24650;SDS011;12783;48.824;8.662;2022-08-01T03:29:14;1.55;;;1.08;;
24650;SDS011;12783;48.824;8.662;2022-08-01T03:31:43;1.55;;;1.45;;
24650;SDS011;12783;48.824;8.662;2022-08-01T03:34:11;3.35;;;1.50;;
24650;SDS011;12783;48.824;8.662;2022-08-01T03:36:48;3.28;;;1.52;;
24650;SDS011;12783;48.824;8.662;2022-08-01T03:39:16;3.85;;;1.35;;
24650;SDS011;12783;48.824;8.662;2022-08-01T03:41:46;1.70;;;1.20;;
24650;SDS011;12783;48.824;8.662;2022-08-01T03:44:23;1.27;;;1.17;;
24650;SDS011;12783;48.824;8.662;2022-08-01T03:46:54;1.77;;;1.42;;
24650;SDS011;12783;48.824;8.662;2022-08-01T03:49:46;1.40;;;1.30;;
24650;SDS011;12783;48.824;8.662;2022-08-01T03:52:13;1.80;;;1.30;;
24650;SDS011;12783;48.824;8.662;2022-08-01T03:54:41;1.88;;;1.30;;
24650;SDS011;12783;48.824;8.662;2022-08-01T03:57:12;1.92;;;1.40;;
24650;SDS011;12783;48.824;8.662;2022-08-01T03:59:59;1.30;;;1.20;;
24650;SDS011;12783;48.824;8.662;2022-08-01T04:02:27;1.30;;;1.20;;
24650;SDS011;12783;48.824;8.662;2022-08-01T04:04:54;1.98;;;1.50;;
24650;SDS011;12783;48.824;8.662;2022-08-01T04:07:25;1.33;;;1.23;;
24650;SDS011;12783;48.824;8.662;2022-08-01T04:09:54;2.58;;;1.42;;
24650;SDS011;12783;48.824;8.662;2022-08-01T04:12:21;2.45;;;1.30;;
24650;SDS011;12783;48.824;8.662;2022-08-01T04:14:48;1.25;;;1.15;;
24650;SDS011;12783;48.824;8.662;2022-08-01T04:17:16;1.63;;;1.02;;
24650;SDS011;12783;48.824;8.662;2022-08-01T04:19:43;2.92;;;1.20;;
24650;SDS011;12783;48.824;8.662;2022-08-01T04:22:14;1.60;;;1.20;;
24650;SDS011;12783;48.824;8.662;2022-08-01T04:24:42;3.13;;;1.20;;
24650;SDS011;12783;48.824;8.662;2022-08-01T04:27:23;2.35;;;1.38;;
24650;SDS011;12783;48.824;8.662;2022-08-01T04:30:15;1.55;;;1.20;;
24650;SDS011;12783;48.824;8.662;2022-08-01T04:32:46;3.22;;;1.20;;
24650;SDS011;12783;48.824;8.662;2022-08-01T04:35:14;3.08;;;1.10;;
24650;SDS011;12783;48.824;8.662;2022-08-01T04:38:05;1.42;;;1.05;;
24650;SDS011;12783;48.824;8.662;2022-08-01T04:40:31;1.13;;;1.00;;
24650;SDS011;12783;48.824;8.662;2022-08-01T04:42:58;2.17;;;1.30;;
24650;SDS011;12783;48.824;8.662;2022-08-01T04:45:26;1.90;;;1.25;;
24650;SDS011;12783;48.824;8.662;2022-08-01T04:47:53;2.47;;;1.08;;
24650;SDS011;12783;48.824;8.662;2022-08-01T04:50:21;1.83;;;1.33;;
24650;SDS011;12783;48.824;8.662;2022-08-01T04:52:48;1.38;;;1.25;;
24650;SDS011;12783;48.824;8.662;2022-08-01T04:55:15;2.08;;;1.33;;
24650;SDS011;12783;48.824;8.662;2022-08-01T04:57:43;1.98;;;1.25;;
24650;SDS011;12783;48.824;8.662;2022-08-01T05:00:11;1.60;;;1.15;;
24650;SDS011;12783;48.824;8.662;2022-08-01T05:02:38;2.38;;;1.27;;
24650;SDS011;12783;48.824;8.662;2022-08-01T05:05:05;2.40;;;1.20;;
24650;SDS011;12783;48.824;8.662;2022-08-01T05:07:32;2.40;;;1.20;;
24650;SDS011;12783;48.824;8.662;2022-08-01T05:10:10;1.38;;;1.17;;
24650;SDS011;12783;48.824;8.662;2022-08-01T05:12:37;1.38;;;1.10;;
24650;SDS011;12783;48.824;8.662;2022-08-01T05:15:05;1.80;;;1.10;;
24650;SDS011;12783;48.824;8.662;2022-08-01T05:17:40;1.90;;;1.10;;
24650;SDS011;12783;48.824;8.662;2022-08-01T05:20:08;3.20;;;1.38;;
24650;SDS011;12783;48.824;8.662;2022-08-01T05:22:36;1.67;;;1.10;;
24650;SDS011;12783;48.824;8.662;2022-08-01T05:25:03;1.63;;;1.27;;
24650;SDS011;12783;48.824;8.662;2022-08-01T05:27:31;2.17;;;1.20;;
24650;SDS011;12783;48.824;8.662;2022-08-01T05:29:59;1.52;;;1.33;;
24650;SDS011;12783;48.824;8.662;2022-08-01T05:32:25;1.58;;;1.10;;
24650;SDS011;12783;48.824;8.662;2022-08-01T05:34:53;1.20;;;1.10;;
24650;SDS011;12783;48.824;8.662;2022-08-01T05:37:20;2.83;;;1.30;;
24650;SDS011;12783;48.824;8.662;2022-08-01T05:39:46;2.10;;;1.40;;
24650;SDS011;12783;48.824;8.662;2022-08-01T05:42:13;1.10;;;1.00;;
24650;SDS011;12783;48.824;8.662;2022-08-01T05:44:40;2.97;;;1.20;;
24650;SDS011;12783;48.824;8.662;2022-08-01T05:47:07;1.25;;;1.15;;
24650;SDS011;12783;48.824;8.662;2022-08-01T05:49:33;1.85;;;1.20;;
24650;SDS011;12783;48.824;8.662;2022-08-01T05:52:00;1.52;;;1.10;;
24650;SDS011;12783;48.824;8.662;2022-08-01T05:54:28;1.92;;;1.23;;
24650;SDS011;12783;48.824;8.662;2022-08-01T05:56:55;2.30;;;1.30;;
24650;SDS011;12783;48.824;8.662;2022-08-01T05:59:25;1.42;;;1.13;;
24650;SDS011;12783;48.824;8.662;2022-08-01T06:01:52;2.20;;;0.95;;
24650;SDS011;12783;48.824;8.662;2022-08-01T06:04:19;3.03;;;1.27;;
24650;SDS011;12783;48.824;8.662;2022-08-01T06:06:46;2.60;;;1.02;;
24650;SDS011;12783;48.824;8.662;2022-08-01T06:09:13;1.38;;;1.02;;
24650;SDS011;12783;48.824;8.662;2022-08-01T06:11:40;1.48;;;1.38;;
24650;SDS011;12783;48.824;8.662;2022-08-01T06:14:06;2.70;;;1.50;;
24650;SDS011;12783;48.824;8.662;2022-08-01T06:16:33;1.92;;;1.35;;
24650;SDS011;12783;48.824;8.662;2022-08-01T06:19:00;2.40;;;1.35;;
24650;SDS011;12783;48.824;8.662;2022-08-01T06:21:27;1.40;;;1.30;;
24650;SDS011;12783;48.824;8.662;2022-08-01T06:23:53;2.72;;;1.30;;
24650;SDS011;12783;48.824;8.662;2022-08-01T06:26:20;1.92;;;1.30;;
24650;SDS011;12783;48.824;8.662;2022-08-01T06:28:47;3.05;;;1.35;;
24650;SDS011;12783;48.824;8.662;2022-08-01T06:31:14;1.80;;;1.45;;
24650;SDS011;12783;48.824;8.662;2022-08-01T06:33:41;3.30;;;1.30;;
24650;SDS011;12783;48.824;8.662;2022-08-01T06:36:08;2.05;;;1.40;;
24650;SDS011;12783;48.824;8.662;2022-08-01T06:38:35;1.67;;;1.33;;
24650;SDS011;12783;48.824;8.662;2022-08-01T06:41:02;2.83;;;1.38;;
24650;SDS011;12783;48.824;8.662;2022-08-01T06:43:29;4.13;;;1.50;;
24650;SDS011;12783;48.824;8.662;2022-08-01T06:45:56;1.45;;;1.35;;
24650;SDS011;12783;48.824;8.662;2022-08-01T06:48:23;2.70;;;1.38;;
24650;SDS011;12783;48.824;8.662;2022-08-01T06:50:50;1.88;;;1.42;;
24650;SDS011;12783;48.824;8.662;2022-08-01T06:53:37;2.00;;;1.80;;
24650;SDS011;12783;48.824;8.662;2022-08-01T06:56:04;2.47;;;1.50;;
24650;SDS011;12783;48.824;8.662;2022-08-01T06:58:32;1.60;;;1.50;;
24650;SDS011;12783;48.824;8.662;2022-08-01T07:01:01;1.83;;;1.50;;
24650;SDS011;12783;48.824;8.662;2022-08-01T07:03:35;8.02;;;1.58;;
24650;SDS011;12783;48.824;8.662;2022-08-01T07:06:23;2.67;;;1.55;;
24650;SDS011;12783;48.824;8.662;2022-08-01T07:08:51;2.58;;;1.70;;
24650;SDS011;12783;48.824;8.662;2022-08-01T07:11:19;1.92;;;1.55;;
24650;SDS011;12783;48.824;8.662;2022-08-01T07:13:46;2.60;;;1.58;;
24650;SDS011;12783;48.824;8.662;2022-08-01T07:16:13;2.10;;;1.50;;
24650;SDS011;12783;48.824;8.662;2022-08-01T07:18:40;2.05;;;1.70;;
24650;SDS011;12783;48.824;8.662;2022-08-01T07:21:07;5.07;;;1.75;;
24650;SDS011;12783;48.824;8.662;2022-08-01T07:23:46;2.95;;;1.80;;
24650;SDS011;12783;48.824;8.662;2022-08-01T07:26:13;5.88;;;1.50;;
24650;SDS011;12783;48.824;8.662;2022-08-01T07:28:39;5.80;;;1.52;;
24650;SDS011;12783;48.824;8.662;2022-08-01T07:31:09;1.85;;;1.40;;
24650;SDS011;12783;48.824;8.662;2022-08-01T07:33:36;3.60;;;1.52;;
24650;SDS011;12783;48.824;8.662;2022-08-01T07:36:15;5.60;;;1.58;;
24650;SDS011;12783;48.824;8.662;2022-08-01T07:38:42;1.60;;;1.50;;
24650;SDS011;12783;48.824;8.662;2022-08-01T07:41:09;7.35;;;2.35;;
24650;SDS011;12783;48.824;8.662;2022-08-01T07:43:36;2.00;;;1.75;;
24650;SDS011;12783;48.824;8.662;2022-08-01T07:46:03;2.85;;;1.65;;
24650;SDS011;12783;48.824;8.662;2022-08-01T07:48:30;4.10;;;1.70;;
24650;SDS011;12783;48.824;8.662;2022-08-01T07:50:57;3.35;;;1.85;;
24650;SDS011;12783;48.824;8.662;2022-08-01T07:53:24;3.22;;;1.80;;
24650;SDS011;12783;48.824;8.662;2022-08-01T07:55:51;1.95;;;1.67;;
24650;SDS011;12783;48.824;8.662;2022-08-01T07:58:17;4.57;;;2.10;;
24650;SDS011;12783;48.824;8.662;2022-08-01T08:00:44;4.35;;;2.08;;
24650;SDS011;12783;48.824;8.662;2022-08-01T08:03:11;2.33;;;2.10;;
24650;SDS011;12783;48.824;8.662;2022-08-01T08:05:38;3.47;;;2.45;;
24650;SDS011;12783;48.824;8.662;2022-08-01T08:08:24;4.00;;;2.30;;
24650;SDS011;12783;48.824;8.662;2022-08-01T08:10:51;3.92;;;2.33;;
24650;SDS011;12783;48.824;8.662;2022-08-01T08:13:18;2.90;;;2.20;;
24650;SDS011;12783;48.824;8.662;2022-08-01T08:15:46;4.25;;;2.20;;
24650;SDS011;12783;48.824;8.662;2022-08-01T08:18:14;4.32;;;2.10;;
24650;SDS011;12783;48.824;8.662;2022-08-01T08:20:41;4.82;;;2.10;;
24650;SDS011;12783;48.824;8.662;2022-08-01T08:23:07;4.18;;;2.35;;
24650;SDS011;12783;48.824;8.662;2022-08-01T08:26:09;2.80;;;2.20;;
24650;SDS011;12783;48.824;8.662;2022-08-01T08:28:36;2.45;;;2.13;;
24650;SDS011;12783;48.824;8.662;2022-08-01T08:31:05;1.90;;;1.80;;
24650;SDS011;12783;48.824;8.662;2022-08-01T08:33:52;2.13;;;1.92;;
24650;SDS011;12783;48.824;8.662;2022-08-01T08:36:19;3.67;;;2.40;;
24650;SDS011;12783;48.824;8.662;2022-08-01T08:38:46;2.38;;;2.17;;
24650;SDS011;12783;48.824;8.662;2022-08-01T08:41:13;3.67;;;2.33;;
24650;SDS011;12783;48.824;8.662;2022-08-01T08:43:46;2.63;;;2.30;;
24650;SDS011;12783;48.824;8.662;2022-08-01T08:46:13;6.30;;;2.40;;
24650;SDS011;12783;48.824;8.662;2022-08-01T08:48:41;6.05;;;2.75;;
24650;SDS011;12783;48.824;8.662;2022-08-01T08:51:08;2.78;;;2.20;;
24650;SDS011;12783;48.824;8.662;2022-08-01T08:53:40;2.78;;;2.20;;
24650;SDS011;12783;48.824;8.662;2022-08-01T08:56:11;3.53;;;2.50;;
24650;SDS011;12783;48.824;8.662;2022-08-01T08:58:40;3.88;;;2.10;;
24650;SDS011;12783;48.824;8.662;2022-08-01T09:01:08;3.00;;;2.35;;
24650;SDS011;12783;48.824;8.662;2022-08-01T09:03:35;6.38;;;2.40;;
24650;SDS011;12783;48.824;8.662;2022-08-01T09:06:02;2.40;;;2.20;;
24650;SDS011;12783;48.824;8.662;2022-08-01T09:08:29;3.63;;;2.50;;
24650;SDS011;12783;48.824;8.662;2022-08-01T09:10:56;3.00;;;2.30;;
24650;SDS011;12783;48.824;8.662;2022-08-01T09:13:23;3.50;;;2.28;;
24650;SDS011;12783;48.824;8.662;2022-08-01T09:15:53;4.05;;;2.30;;
24650;SDS011;12783;48.824;8.662;2022-08-01T09:21:07;3.38;;;2.38;;
24650;SDS011;12783;48.824;8.662;2022-08-01T09:23:46;3.63;;;2.30;;
24650;SDS011;12783;48.824;8.662;2022-08-01T09:26:30;5.90;;;2.40;;
24650;SDS011;12783;48.824;8.662;2022-08-01T09:29:02;4.03;;;2.50;;
24650;SDS011;12783;48.824;8.662;2022-08-01T09:31:39;3.58;;;2.85;;
24650;SDS011;12783;48.824;8.662;2022-08-01T09:34:13;4.28;;;2.55;;
24650;SDS011;12783;48.824;8.662;2022-08-01T09:36:44;4.40;;;2.50;;
24650;SDS011;12783;48.824;8.662;2022-08-01T09:39:14;4.18;;;2.50;;
24650;SDS011;12783;48.824;8.662;2022-08-01T09:41:41;3.60;;;2.70;;
24650;SDS011;12783;48.824;8.662;2022-08-01T09:44:08;3.47;;;2.45;;
24650;SDS011;12783;48.824;8.662;2022-08-01T09:46:35;2.60;;;2.40;;
24650;SDS011;12783;48.824;8.662;2022-08-01T09:49:04;6.18;;;2.40;;
24650;SDS011;12783;48.824;8.662;2022-08-01T09:51:36;4.53;;;2.50;;
24650;SDS011;12783;48.824;8.662;2022-08-01T09:54:29;2.63;;;2.42;;
24650;SDS011;12783;48.824;8.662;2022-08-01T09:57:11;4.00;;;2.70;;
24650;SDS011;12783;48.824;8.662;2022-08-01T09:59:44;3.13;;;2.55;;
24650;SDS011;12783;48.824;8.662;2022-08-01T10:02:34;2.83;;;2.30;;
24650;SDS011;12783;48.824;8.662;2022-08-01T10:05:06;3.13;;;2.17;;
24650;SDS011;12783;48.824;8.662;2022-08-01T10:07:56;2.50;;;2.30;;
24650;SDS011;12783;48.824;8.662;2022-08-01T10:10:24;3.10;;;2.30;;
24650;SDS011;12783;48.824;8.662;2022-08-01T10:12:57;4.40;;;2.42;;
24650;SDS011;12783;48.824;8.662;2022-08-01T10:15:25;3.42;;;2.20;;
24650;SDS011;12783;48.824;8.662;2022-08-01T10:18:04;2.33;;;2.10;;
24650;SDS011;12783;48.824;8.662;2022-08-01T10:20:46;3.67;;;2.30;;
24650;SDS011;12783;48.824;8.662;2022-08-01T10:23:13;3.83;;;2.40;;
24650;SDS011;12783;48.824;8.662;2022-08-01T10:25:41;4.95;;;2.17;;
24650;SDS011;12783;48.824;8.662;2022-08-01T10:28:16;3.08;;;2.30;;
24650;SDS011;12783;48.824;8.662;2022-08-01T10:30:49;2.55;;;2.35;;
24650;SDS011;12783;48.824;8.662;2022-08-01T10:33:21;3.72;;;1.92;;
24650;SDS011;12783;48.824;8.662;2022-08-01T10:36:09;3.83;;;2.15;;
24650;SDS011;12783;48.824;8.662;2022-08-01T10:38:36;4.18;;;2.00;;
24650;SDS011;12783;48.824;8.662;2022-08-01T10:41:04;2.60;;;2.13;;
24650;SDS011;12783;48.824;8.662;2022-08-01T10:43:34;3.70;;;1.80;;
24650;SDS011;12783;48.824;8.662;2022-08-01T10:46:02;4.13;;;2.20;;
24650;SDS011;12783;48.824;8.662;2022-08-01T10:51:17;4.80;;;2.20;;
24650;SDS011;12783;48.824;8.662;2022-08-01T10:53:55;4.43;;;1.70;;
24650;SDS011;12783;48.824;8.662;2022-08-01T10:56:26;3.22;;;1.80;;
24650;SDS011;12783;48.824;8.662;2022-08-01T10:59:14;2.22;;;2.03;;
24650;SDS011;12783;48.824;8.662;2022-08-01T11:02:07;7.90;;;2.15;;
24650;SDS011;12783;48.824;8.662;2022-08-01T11:07:05;3.88;;;1.83;;
24650;SDS011;12783;48.824;8.662;2022-08-01T11:09:39;3.67;;;1.80;;
24650;SDS011;12783;48.824;8.662;2022-08-01T11:17:31;2.00;;;1.58;;
24650;SDS011;12783;48.824;8.662;2022-08-01T11:20:11;4.78;;;2.05;;
24650;SDS011;12783;48.824;8.662;2022-08-01T11:28:32;4.13;;;1.83;;
24650;SDS011;12783;48.824;8.662;2022-08-01T11:41:09;5.32;;;2.40;;
24650;SDS011;12783;48.824;8.662;2022-08-01T11:49:23;3.15;;;1.90;;
24650;SDS011;12783;48.824;8.662;2022-08-01T11:52:15;2.25;;;1.77;;
24650;SDS011;12783;48.824;8.662;2022-08-01T11:54:57;5.55;;;2.15;;
24650;SDS011;12783;48.824;8.662;2022-08-01T11:57:35;3.03;;;1.92;;
24650;SDS011;12783;48.824;8.662;2022-08-01T12:00:17;3.50;;;2.00;;
24650;SDS011;12783;48.824;8.662;2022-08-01T12:02:45;2.15;;;1.95;;
24650;SDS011;12783;48.824;8.662;2022-08-01T12:05:13;6.60;;;2.00;;
24650;SDS011;12783;48.824;8.662;2022-08-01T12:07:44;2.40;;;1.70;;
24650;SDS011;12783;48.824;8.662;2022-08-01T12:10:13;6.38;;;2.13;;
24650;SDS011;12783;48.824;8.662;2022-08-01T12:12:43;3.08;;;1.73;;
24650;SDS011;12783;48.824;8.662;2022-08-01T12:15:17;3.33;;;2.00;;
24650;SDS011;12783;48.824;8.662;2022-08-01T12:17:50;3.33;;;2.30;;
24650;SDS011;12783;48.824;8.662;2022-08-01T12:20:26;2.83;;;2.53;;
24650;SDS011;12783;48.824;8.662;2022-08-01T12:22:56;5.35;;;2.60;;
24650;SDS011;12783;48.824;8.662;2022-08-01T12:25:24;4.07;;;2.92;;
24650;SDS011;12783;48.824;8.662;2022-08-01T12:27:51;3.45;;;2.78;;
24650;SDS011;12783;48.824;8.662;2022-08-01T12:30:22;3.00;;;2.17;;
24650;SDS011;12783;48.824;8.662;2022-08-01T12:32:51;5.85;;;2.78;;
24650;SDS011;12783;48.824;8.662;2022-08-01T12:35:23;3.67;;;2.38;;
24650;SDS011;12783;48.824;8.662;2022-08-01T12:37:57;7.90;;;2.83;;
24650;SDS011;12783;48.824;8.662;2022-08-01T12:40:35;2.80;;;2.37;;
24650;SDS011;12783;48.824;8.662;2022-08-01T12:43:14;7.90;;;3.70;;
24650;SDS011;12783;48.824;8.662;2022-08-01T12:45:54;6.40;;;2.78;;
24650;SDS011;12783;48.824;8.662;2022-08-01T12:48:22;3.63;;;1.88;;
24650;SDS011;12783;48.824;8.662;2022-08-01T12:50:50;3.90;;;1.88;;
24650;SDS011;12783;48.824;8.662;2022-08-01T12:53:18;3.45;;;2.00;;
24650;SDS011;12783;48.824;8.662;2022-08-01T12:55:54;4.50;;;2.05;;
24650;SDS011;12783;48.824;8.662;2022-08-01T12:58:31;4.68;;;2.30;;
24650;SDS011;12783;48.824;8.662;2022-08-01T13:01:03;3.55;;;2.17;;
24650;SDS011;12783;48.824;8.662;2022-08-01T13:03:32;2.13;;;1.90;;
24650;SDS011;12783;48.824;8.662;2022-08-01T13:05:59;2.25;;;1.83;;
24650;SDS011;12783;48.824;8.662;2022-08-01T13:08:30;2.95;;;1.90;;
24650;SDS011;12783;48.824;8.662;2022-08-01T13:11:05;4.63;;;1.92;;
24650;SDS011;12783;48.824;8.662;2022-08-01T13:13:42;2.90;;;2.22;;
24650;SDS011;12783;48.824;8.662;2022-08-01T13:16:14;5.50;;;1.73;;
24650;SDS011;12783;48.824;8.662;2022-08-01T13:19:03;4.95;;;1.90;;
24650;SDS011;12783;48.824;8.662;2022-08-01T13:21:31;4.85;;;2.30;;
24650;SDS011;12783;48.824;8.662;2022-08-01T13:24:22;7.15;;;2.40;;
24650;SDS011;12783;48.824;8.662;2022-08-01T13:26:54;4.25;;;2.00;;
24650;SDS011;12783;48.824;8.662;2022-08-01T13:29:37;6.47;;;1.95;;
24650;SDS011;12783;48.824;8.662;2022-08-01T13:32:20;3.03;;;2.10;;
24650;SDS011;12783;48.824;8.662;2022-08-01T13:35:00;2.60;;;1.83;;
24650;SDS011;12783;48.824;8.662;2022-08-01T13:37:31;3.60;;;1.83;;
24650;SDS011;12783;48.824;8.662;2022-08-01T13:39:58;4.45;;;1.58;;
24650;SDS011;12783;48.824;8.662;2022-08-01T13:42:25;3.72;;;1.83;;
24650;SDS011;12783;48.824;8.662;2022-08-01T13:44:51;3.30;;;2.05;;
24650;SDS011;12783;48.824;8.662;2022-08-01T13:47:18;3.15;;;2.30;;
24650;SDS011;12783;48.824;8.662;2022-08-01T13:49:57;3.80;;;2.03;;
24650;SDS011;12783;48.824;8.662;2022-08-01T13:52:27;3.17;;;1.83;;
24650;SDS011;12783;48.824;8.662;2022-08-01T13:54:54;2.33;;;1.60;;
24650;SDS011;12783;48.824;8.662;2022-08-01T13:57:21;1.95;;;1.75;;
24650;SDS011;12783;48.824;8.662;2022-08-01T13:59:48;2.22;;;1.80;;
24650;SDS011;12783;48.824;8.662;2022-08-01T14:02:14;3.03;;;1.92;;
24650;SDS011;12783;48.824;8.662;2022-08-01T14:04:41;2.65;;;1.90;;
24650;SDS011;12783;48.824;8.662;2022-08-01T14:07:08;3.85;;;1.90;;
24650;SDS011;12783;48.824;8.662;2022-08-01T14:09:40;2.70;;;1.90;;
24650;SDS011;12783;48.824;8.662;2022-08-01T14:12:28;7.00;;;2.60;;
24650;SDS011;12783;48.824;8.662;2022-08-01T14:14:54;4.00;;;2.00;;
24650;SDS011;12783;48.824;8.662;2022-08-01T14:17:22;4.60;;;1.65;;
24650;SDS011;12783;48.824;8.662;2022-08-01T14:19:49;2.35;;;1.67;;
24650;SDS011;12783;48.824;8.662;2022-08-01T14:22:16;4.40;;;1.80;;
24650;SDS011;12783;48.824;8.662;2022-08-01T14:24:42;3.83;;;1.98;;
24650;SDS011;12783;48.824;8.662;2022-08-01T14:27:09;4.30;;;2.03;;
24650;SDS011;12783;48.824;8.662;2022-08-01T14:29:36;1.98;;;1.75;;
24650;SDS011;12783;48.824;8.662;2022-08-01T14:32:23;2.47;;;1.70;;
24650;SDS011;12783;48.824;8.662;2022-08-01T14:34:54;1.70;;;1.55;;
24650;SDS011;12783;48.824;8.662;2022-08-01T14:37:22;5.05;;;1.80;;
24650;SDS011;12783;48.824;8.662;2022-08-01T14:39:55;4.03;;;1.67;;
24650;SDS011;12783;48.824;8.662;2022-08-01T14:42:24;3.33;;;1.30;;
24650;SDS011;12783;48.824;8.662;2022-08-01T14:44:51;3.30;;;1.60;;
24650;SDS011;12783;48.824;8.662;2022-08-01T14:47:18;2.35;;;1.55;;
24650;SDS011;12783;48.824;8.662;2022-08-01T14:49:47;1.65;;;1.40;;
24650;SDS011;12783;48.824;8.662;2022-08-01T14:52:14;4.65;;;1.60;;
24650;SDS011;12783;48.824;8.662;2022-08-01T14:54:41;1.27;;;1.17;;
24650;SDS011;12783;48.824;8.662;2022-08-01T14:57:09;2.70;;;1.60;;
24650;SDS011;12783;48.824;8.662;2022-08-01T14:59:36;1.50;;;1.40;;
24650;SDS011;12783;48.824;8.662;2022-08-01T15:02:03;3.67;;;1.45;;
24650;SDS011;12783;48.824;8.662;2022-08-01T15:04:30;2.20;;;1.50;;
24650;SDS011;12783;48.824;8.662;2022-08-01T15:06:57;2.55;;;1.63;;
24650;SDS011;12783;48.824;8.662;2022-08-01T15:09:24;1.73;;;1.30;;
24650;SDS011;12783;48.824;8.662;2022-08-01T15:11:50;2.08;;;1.40;;
24650;SDS011;12783;48.824;8.662;2022-08-01T15:14:17;2.65;;;1.77;;
24650;SDS011;12783;48.824;8.662;2022-08-01T15:17:03;2.22;;;1.40;;
24650;SDS011;12783;48.824;8.662;2022-08-01T15:19:29;2.53;;;1.40;;
24650;SDS011;12783;48.824;8.662;2022-08-01T15:21:56;1.63;;;1.40;;
24650;SDS011;12783;48.824;8.662;2022-08-01T15:24:26;1.67;;;1.27;;
24650;SDS011;12783;48.824;8.662;2022-08-01T15:26:53;1.38;;;1.10;;
24650;SDS011;12783;48.824;8.662;2022-08-01T15:29:20;3.08;;;1.35;;
24650;SDS011;12783;48.824;8.662;2022-08-01T15:31:46;2.08;;;1.25;;
24650;SDS011;12783;48.824;8.662;2022-08-01T15:34:13;1.73;;;1.40;;
24650;SDS011;12783;48.824;8.662;2022-08-01T15:36:40;1.67;;;1.30;;
24650;SDS011;12783;48.824;8.662;2022-08-01T15:39:11;5.05;;;1.20;;
24650;SDS011;12783;48.824;8.662;2022-08-01T15:41:39;1.10;;;1.00;;
24650;SDS011;12783;48.824;8.662;2022-08-01T15:44:05;5.10;;;1.40;;
24650;SDS011;12783;48.824;8.662;2022-08-01T15:46:32;1.63;;;1.20;;
24650;SDS011;12783;48.824;8.662;2022-08-01T15:49:03;1.30;;;1.02;;
24650;SDS011;12783;48.824;8.662;2022-08-01T15:51:31;1.92;;;1.15;;
24650;SDS011;12783;48.824;8.662;2022-08-01T15:53:59;1.30;;;0.95;;
24650;SDS011;12783;48.824;8.662;2022-08-01T15:56:29;2.95;;;1.05;;